createdAt,value
2017-09-15T00:00:11.823Z,0
2017-09-15T00:00:37.944Z,0
2017-09-15T00:01:04.071Z,0
2017-09-15T00:01:30.194Z,0
2017-09-15T00:01:56.314Z,0
2017-09-15T00:02:22.438Z,0
2017-09-15T00:02:48.577Z,0
2017-09-15T00:03:14.698Z,0
2017-09-15T00:03:40.827Z,0
2017-09-15T00:04:06.943Z,0
2017-09-15T00:04:33.071Z,0
2017-09-15T00:04:59.183Z,0
2017-09-15T00:05:25.306Z,0
2017-09-15T00:05:51.434Z,0
2017-09-15T00:06:17.551Z,0
2017-09-15T00:06:43.685Z,0
2017-09-15T00:07:09.804Z,0
2017-09-15T00:07:35.927Z,0
2017-09-15T00:08:02.049Z,0
2017-09-15T00:08:28.166Z,0
2017-09-15T00:08:54.293Z,0
2017-09-15T00:09:20.415Z,0
2017-09-15T00:09:46.590Z,0
2017-09-15T00:10:12.714Z,0
2017-09-15T00:10:38.832Z,0
2017-09-15T00:11:04.957Z,0
2017-09-15T00:11:31.075Z,0
2017-09-15T00:11:57.202Z,0
2017-09-15T00:12:23.324Z,0
2017-09-15T00:12:49.450Z,0
2017-09-15T00:13:15.568Z,0
2017-09-15T00:13:41.688Z,0
2017-09-15T00:14:07.815Z,0
2017-09-15T00:14:33.940Z,0
2017-09-15T00:15:00.077Z,0
2017-09-15T00:15:26.232Z,0
2017-09-15T00:15:52.325Z,0
2017-09-15T00:16:18.448Z,0
2017-09-15T00:16:44.572Z,0
2017-09-15T00:17:10.711Z,0
2017-09-15T00:17:36.835Z,0
2017-09-15T00:18:02.962Z,0
2017-09-15T00:18:29.079Z,0
2017-09-15T00:18:55.200Z,0
2017-09-15T00:19:21.327Z,0
2017-09-15T00:19:47.448Z,0
2017-09-15T00:20:13.578Z,0
2017-09-15T00:20:39.705Z,0
2017-09-15T00:21:05.822Z,0
2017-09-15T00:21:31.942Z,0
2017-09-15T00:21:58.064Z,0
2017-09-15T00:22:24.188Z,0
2017-09-15T00:22:50.316Z,0
2017-09-15T00:23:16.436Z,0
2017-09-15T00:23:42.560Z,0
2017-09-15T00:24:08.677Z,0
2017-09-15T00:24:34.809Z,0
2017-09-15T00:25:00.946Z,0
2017-09-15T00:25:27.063Z,0
2017-09-15T00:25:53.188Z,0
2017-09-15T00:26:19.311Z,0
2017-09-15T00:26:45.433Z,0
2017-09-15T00:27:11.563Z,0
2017-09-15T00:27:37.677Z,0
2017-09-15T00:28:03.804Z,0
2017-09-15T00:28:29.921Z,0
2017-09-15T00:28:56.044Z,0
2017-09-15T00:29:22.161Z,0
2017-09-15T00:29:48.284Z,0
2017-09-15T00:30:14.417Z,0
2017-09-15T00:30:40.536Z,0
2017-09-15T00:31:06.657Z,0
2017-09-15T00:31:32.781Z,0
2017-09-15T00:31:58.907Z,0
2017-09-15T00:32:25.025Z,0
2017-09-15T00:32:51.147Z,0
2017-09-15T00:33:17.273Z,0
2017-09-15T00:33:43.390Z,0
2017-09-15T00:34:09.517Z,0
2017-09-15T00:34:35.642Z,0
2017-09-15T00:35:01.758Z,0
2017-09-15T00:35:27.884Z,0
2017-09-15T00:35:54.006Z,0
2017-09-15T00:36:20.125Z,0
2017-09-15T00:36:46.248Z,0
2017-09-15T00:37:12.374Z,0
2017-09-15T00:37:38.494Z,0
2017-09-15T00:38:04.612Z,0
2017-09-15T00:38:30.742Z,0
2017-09-15T00:38:56.864Z,0
2017-09-15T00:39:22.981Z,0
2017-09-15T00:39:49.106Z,0
2017-09-15T00:40:15.227Z,0
2017-09-15T00:40:41.344Z,0
2017-09-15T00:41:07.468Z,0
2017-09-15T00:41:33.595Z,0
2017-09-15T00:41:59.714Z,0
2017-09-15T00:42:25.834Z,0
2017-09-15T00:42:51.960Z,0
2017-09-15T00:43:18.075Z,0
2017-09-15T00:43:44.199Z,0
2017-09-15T00:44:10.324Z,0
2017-09-15T00:44:36.449Z,0
2017-09-15T00:45:02.567Z,0
2017-09-15T00:45:28.690Z,0
2017-09-15T00:45:54.817Z,0
2017-09-15T00:46:20.940Z,0
2017-09-15T00:46:48.509Z,0
2017-09-15T00:47:14.633Z,0
2017-09-15T00:47:40.761Z,0
2017-09-15T00:48:06.884Z,0
2017-09-15T00:48:32.998Z,0
2017-09-15T00:48:59.126Z,0
2017-09-15T00:49:25.243Z,0
2017-09-15T00:49:51.359Z,0
2017-09-15T00:50:17.482Z,0
2017-09-15T00:50:43.613Z,0
2017-09-15T00:51:09.733Z,0
2017-09-15T00:51:35.857Z,0
2017-09-15T00:52:01.978Z,0
2017-09-15T00:52:28.100Z,0
2017-09-15T00:52:54.227Z,0
2017-09-15T00:53:20.345Z,0
2017-09-15T00:53:46.473Z,0
2017-09-15T00:54:12.590Z,0
2017-09-15T00:54:38.717Z,0
2017-09-15T00:55:04.836Z,0
2017-09-15T00:55:30.963Z,0
2017-09-15T00:55:57.079Z,0
2017-09-15T00:56:23.202Z,0
2017-09-15T00:56:49.329Z,0
2017-09-15T00:57:15.459Z,0
2017-09-15T00:57:41.572Z,0
2017-09-15T00:58:07.691Z,0
2017-09-15T00:58:33.818Z,0
2017-09-15T00:58:59.942Z,0
2017-09-15T00:59:26.062Z,0
2017-09-15T00:59:52.187Z,0
2017-09-15T01:00:18.306Z,0
2017-09-15T01:00:44.436Z,0
2017-09-15T01:01:10.548Z,0
2017-09-15T01:01:36.667Z,0
2017-09-15T01:02:02.791Z,0
2017-09-15T01:02:28.919Z,0
2017-09-15T01:02:55.043Z,0
2017-09-15T01:03:21.156Z,0
2017-09-15T01:03:47.280Z,0
2017-09-15T01:04:13.401Z,0
2017-09-15T01:04:39.528Z,0
2017-09-15T01:05:05.653Z,0
2017-09-15T01:05:31.777Z,0
2017-09-15T01:05:57.907Z,0
2017-09-15T01:06:24.025Z,0
2017-09-15T01:06:50.153Z,0
2017-09-15T01:07:16.270Z,0
2017-09-15T01:07:42.391Z,0
2017-09-15T01:08:08.516Z,0
2017-09-15T01:08:34.640Z,0
2017-09-15T01:09:00.757Z,0
2017-09-15T01:09:26.871Z,0
2017-09-15T01:09:52.998Z,0
2017-09-15T01:10:19.116Z,0
2017-09-15T01:10:45.237Z,0
2017-09-15T01:11:11.359Z,0
2017-09-15T01:11:37.478Z,0
2017-09-15T01:12:03.615Z,0
2017-09-15T01:12:29.728Z,0
2017-09-15T01:12:55.852Z,0
2017-09-15T01:13:21.977Z,0
2017-09-15T01:13:48.100Z,0
2017-09-15T01:14:14.221Z,0
2017-09-15T01:14:40.362Z,0
2017-09-15T01:15:06.487Z,0
2017-09-15T01:15:32.604Z,0
2017-09-15T01:15:58.724Z,0
2017-09-15T01:16:24.867Z,0
2017-09-15T01:16:50.984Z,0
2017-09-15T01:17:17.135Z,0
2017-09-15T01:17:43.261Z,0
2017-09-15T01:18:09.378Z,0
2017-09-15T01:18:35.507Z,0
2017-09-15T01:19:01.626Z,0
2017-09-15T01:19:27.746Z,0
2017-09-15T01:19:53.867Z,0
2017-09-15T01:20:19.986Z,0
2017-09-15T01:20:46.109Z,0
2017-09-15T01:21:12.239Z,0
2017-09-15T01:21:38.356Z,0
2017-09-15T01:22:04.472Z,0
2017-09-15T01:22:30.590Z,0
2017-09-15T01:22:56.718Z,0
2017-09-15T01:23:22.847Z,0
2017-09-15T01:23:48.965Z,0
2017-09-15T01:24:15.088Z,0
2017-09-15T01:24:41.211Z,0
2017-09-15T01:25:07.333Z,0
2017-09-15T01:25:33.454Z,0
2017-09-15T01:25:59.578Z,0
2017-09-15T01:26:25.697Z,0
2017-09-15T01:26:51.824Z,0
2017-09-15T01:27:17.942Z,0
2017-09-15T01:27:44.069Z,0
2017-09-15T01:28:10.186Z,0
2017-09-15T01:28:36.307Z,0
2017-09-15T01:29:02.434Z,0
2017-09-15T01:29:28.552Z,0
2017-09-15T01:29:54.679Z,0
2017-09-15T01:30:20.802Z,0
2017-09-15T01:30:46.921Z,0
2017-09-15T01:31:13.050Z,0
2017-09-15T01:31:39.168Z,0
2017-09-15T01:32:05.289Z,0
2017-09-15T01:32:31.412Z,0
2017-09-15T01:32:57.540Z,0
2017-09-15T01:33:23.660Z,0
2017-09-15T01:33:49.780Z,0
2017-09-15T01:34:15.907Z,0
2017-09-15T01:34:42.032Z,0
2017-09-15T01:35:08.149Z,0
2017-09-15T01:35:34.277Z,0
2017-09-15T01:36:00.399Z,0
2017-09-15T01:36:26.525Z,0
2017-09-15T01:36:52.643Z,0
2017-09-15T01:37:18.771Z,0
2017-09-15T01:37:44.888Z,0
2017-09-15T01:38:11.016Z,0
2017-09-15T01:38:37.129Z,0
2017-09-15T01:39:03.257Z,0
2017-09-15T01:39:29.371Z,0
2017-09-15T01:39:55.498Z,0
2017-09-15T01:40:21.618Z,0
2017-09-15T01:40:47.737Z,0
2017-09-15T01:41:13.856Z,0
2017-09-15T01:41:39.977Z,0
2017-09-15T01:42:06.104Z,0
2017-09-15T01:42:32.231Z,0
2017-09-15T01:42:58.352Z,0
2017-09-15T01:43:24.471Z,0
2017-09-15T01:43:50.600Z,0
2017-09-15T01:44:16.718Z,0
2017-09-15T01:44:42.844Z,0
2017-09-15T01:45:08.958Z,0
2017-09-15T01:45:35.088Z,0
2017-09-15T01:46:01.213Z,0
2017-09-15T01:46:27.328Z,0
2017-09-15T01:46:53.450Z,0
2017-09-15T01:47:19.570Z,0
2017-09-15T01:47:45.697Z,0
2017-09-15T01:48:11.821Z,0
2017-09-15T01:48:37.944Z,0
2017-09-15T01:49:04.070Z,0
2017-09-15T01:49:30.194Z,0
2017-09-15T01:49:56.314Z,0
2017-09-15T01:50:22.438Z,0
2017-09-15T01:50:48.554Z,0
2017-09-15T01:51:14.681Z,0
2017-09-15T01:51:40.798Z,0
2017-09-15T01:52:06.925Z,0
2017-09-15T01:52:33.041Z,0
2017-09-15T01:52:59.161Z,0
2017-09-15T01:53:25.289Z,0
2017-09-15T01:53:51.406Z,0
2017-09-15T01:54:17.530Z,0
2017-09-15T01:54:43.658Z,0
2017-09-15T01:55:09.774Z,0
2017-09-15T01:55:35.894Z,0
2017-09-15T01:56:02.023Z,0
2017-09-15T01:56:28.141Z,0
2017-09-15T01:56:54.268Z,0
2017-09-15T01:57:20.391Z,0
2017-09-15T01:57:46.507Z,0
2017-09-15T01:58:12.637Z,0
2017-09-15T01:58:38.755Z,0
2017-09-15T01:59:04.874Z,0
2017-09-15T01:59:31.001Z,0
2017-09-15T01:59:57.117Z,0
2017-09-15T02:00:23.240Z,0
2017-09-15T02:00:49.370Z,0
2017-09-15T02:01:15.483Z,0
2017-09-15T02:01:41.620Z,0
2017-09-15T02:02:07.747Z,0
2017-09-15T02:02:33.863Z,0
2017-09-15T02:02:59.995Z,0
2017-09-15T02:03:26.112Z,0
2017-09-15T02:03:52.235Z,0
2017-09-15T02:04:18.359Z,0
2017-09-15T02:04:44.483Z,0
2017-09-15T02:05:10.599Z,0
2017-09-15T02:05:36.722Z,0
2017-09-15T02:06:02.842Z,0
2017-09-15T02:06:28.970Z,0
2017-09-15T02:06:55.087Z,0
2017-09-15T02:07:21.204Z,0
2017-09-15T02:07:47.324Z,0
2017-09-15T02:08:13.452Z,0
2017-09-15T02:08:39.584Z,0
2017-09-15T02:09:05.702Z,0
2017-09-15T02:09:31.822Z,0
2017-09-15T02:09:57.950Z,0
2017-09-15T02:10:24.074Z,0
2017-09-15T02:10:50.193Z,0
2017-09-15T02:11:16.317Z,0
2017-09-15T02:11:42.435Z,0
2017-09-15T02:12:08.562Z,0
2017-09-15T02:12:34.677Z,0
2017-09-15T02:13:00.799Z,0
2017-09-15T02:13:26.927Z,0
2017-09-15T02:13:53.046Z,0
2017-09-15T02:14:19.170Z,0
2017-09-15T02:14:45.289Z,0
2017-09-15T02:15:11.416Z,0
2017-09-15T02:15:37.534Z,0
2017-09-15T02:16:03.661Z,0
2017-09-15T02:16:29.789Z,0
2017-09-15T02:16:55.905Z,0
2017-09-15T02:17:22.027Z,0
2017-09-15T02:17:48.150Z,0
2017-09-15T02:18:14.278Z,0
2017-09-15T02:18:40.395Z,0
2017-09-15T02:19:06.519Z,0
2017-09-15T02:19:32.645Z,0
2017-09-15T02:19:58.768Z,0
2017-09-15T02:20:24.885Z,0
2017-09-15T02:20:51.012Z,0
2017-09-15T02:21:17.130Z,0
2017-09-15T02:21:43.256Z,0
2017-09-15T02:22:09.373Z,0
2017-09-15T02:22:35.502Z,0
2017-09-15T02:23:01.618Z,0
2017-09-15T02:23:27.745Z,0
2017-09-15T02:23:53.861Z,0
2017-09-15T02:24:19.987Z,0
2017-09-15T02:24:46.112Z,0
2017-09-15T02:25:12.230Z,0
2017-09-15T02:25:38.353Z,0
2017-09-15T02:26:04.473Z,0
2017-09-15T02:26:30.590Z,0
2017-09-15T02:26:56.711Z,0
2017-09-15T02:27:22.835Z,0
2017-09-15T02:27:48.964Z,0
2017-09-15T02:28:15.088Z,0
2017-09-15T02:28:41.213Z,0
2017-09-15T02:29:07.336Z,0
2017-09-15T02:29:33.460Z,0
2017-09-15T02:29:59.598Z,0
2017-09-15T02:30:25.725Z,0
2017-09-15T02:30:51.853Z,0
2017-09-15T02:31:17.975Z,0
2017-09-15T02:31:44.096Z,0
2017-09-15T02:32:10.225Z,0
2017-09-15T02:32:36.352Z,0
2017-09-15T02:33:02.474Z,0
2017-09-15T02:33:28.601Z,0
2017-09-15T02:33:54.728Z,0
2017-09-15T02:34:20.846Z,0
2017-09-15T02:34:46.973Z,0
2017-09-15T02:35:13.090Z,0
2017-09-15T02:35:39.218Z,0
2017-09-15T02:36:05.334Z,0
2017-09-15T02:36:31.455Z,0
2017-09-15T02:36:57.582Z,0
2017-09-15T02:37:23.706Z,0
2017-09-15T02:37:49.823Z,0
2017-09-15T02:38:15.945Z,0
2017-09-15T02:38:42.072Z,0
2017-09-15T02:39:08.191Z,0
2017-09-15T02:39:34.318Z,0
2017-09-15T02:40:00.442Z,0
2017-09-15T02:40:26.559Z,0
2017-09-15T02:40:52.685Z,0
2017-09-15T02:41:18.802Z,0
2017-09-15T02:41:44.924Z,0
2017-09-15T02:42:11.046Z,0
2017-09-15T02:42:37.174Z,0
2017-09-15T02:43:03.289Z,0
2017-09-15T02:43:29.410Z,0
2017-09-15T02:43:55.537Z,0
2017-09-15T02:44:21.654Z,0
2017-09-15T02:44:47.781Z,0
2017-09-15T02:45:13.898Z,0
2017-09-15T02:45:40.028Z,0
2017-09-15T02:46:06.152Z,0
2017-09-15T02:46:32.278Z,0
2017-09-15T02:46:58.395Z,0
2017-09-15T02:47:24.515Z,0
2017-09-15T02:47:50.662Z,0
2017-09-15T02:48:16.758Z,0
2017-09-15T02:48:42.882Z,0
2017-09-15T02:49:09.003Z,0
2017-09-15T02:49:35.167Z,0
2017-09-15T02:50:01.286Z,0
2017-09-15T02:50:27.417Z,0
2017-09-15T02:50:53.534Z,0
2017-09-15T02:51:19.656Z,0
2017-09-15T02:51:45.782Z,0
2017-09-15T02:52:11.921Z,0
2017-09-15T02:52:38.069Z,0
2017-09-15T02:53:04.201Z,0
2017-09-15T02:53:30.317Z,0
2017-09-15T02:53:56.440Z,0
2017-09-15T02:54:22.556Z,0
2017-09-15T02:54:48.677Z,0
2017-09-15T02:55:14.804Z,0
2017-09-15T02:55:40.926Z,0
2017-09-15T02:56:07.073Z,0
2017-09-15T02:56:33.170Z,0
2017-09-15T02:56:59.297Z,0
2017-09-15T02:57:25.420Z,0
2017-09-15T02:57:51.541Z,0
2017-09-15T02:58:17.665Z,0
2017-09-15T02:58:43.782Z,0
2017-09-15T02:59:09.909Z,0
2017-09-15T02:59:36.029Z,0
2017-09-15T03:00:02.149Z,0
2017-09-15T03:00:28.269Z,0
2017-09-15T03:00:54.395Z,0
2017-09-15T03:01:20.513Z,0
2017-09-15T03:01:46.633Z,0
2017-09-15T03:02:12.760Z,0
2017-09-15T03:02:38.877Z,0
2017-09-15T03:03:05.000Z,0
2017-09-15T03:03:31.129Z,0
2017-09-15T03:03:57.251Z,0
2017-09-15T03:04:23.368Z,0
2017-09-15T03:04:49.494Z,0
2017-09-15T03:05:15.616Z,0
2017-09-15T03:05:41.733Z,0
2017-09-15T03:06:07.862Z,0
2017-09-15T03:06:33.981Z,0
2017-09-15T03:07:00.105Z,0
2017-09-15T03:07:26.220Z,0
2017-09-15T03:07:52.340Z,0
2017-09-15T03:08:18.464Z,0
2017-09-15T03:08:44.599Z,0
2017-09-15T03:09:10.728Z,0
2017-09-15T03:09:36.846Z,0
2017-09-15T03:10:02.969Z,0
2017-09-15T03:10:29.115Z,0
2017-09-15T03:10:55.238Z,0
2017-09-15T03:11:21.352Z,0
2017-09-15T03:11:47.479Z,0
2017-09-15T03:12:13.603Z,0
2017-09-15T03:12:39.726Z,0
2017-09-15T03:13:05.855Z,0
2017-09-15T03:13:31.968Z,0
2017-09-15T03:13:58.096Z,0
2017-09-15T03:14:24.222Z,0
2017-09-15T03:14:50.346Z,0
2017-09-15T03:15:16.468Z,0
2017-09-15T03:15:42.593Z,0
2017-09-15T03:16:08.710Z,0
2017-09-15T03:16:34.840Z,0
2017-09-15T03:17:00.962Z,0
2017-09-15T03:17:27.078Z,0
2017-09-15T03:17:53.197Z,0
2017-09-15T03:18:19.316Z,0
2017-09-15T03:18:45.444Z,0
2017-09-15T03:19:11.567Z,0
2017-09-15T03:19:37.729Z,0
2017-09-15T03:20:03.857Z,0
2017-09-15T03:20:29.980Z,0
2017-09-15T03:20:56.105Z,0
2017-09-15T03:21:22.226Z,0
2017-09-15T03:21:48.345Z,0
2017-09-15T03:22:14.472Z,0
2017-09-15T03:22:40.596Z,0
2017-09-15T03:23:06.713Z,0
2017-09-15T03:23:32.836Z,0
2017-09-15T03:23:58.962Z,0
2017-09-15T03:24:25.087Z,0
2017-09-15T03:24:51.203Z,0
2017-09-15T03:25:17.328Z,0
2017-09-15T03:25:43.451Z,0
2017-09-15T03:26:09.569Z,0
2017-09-15T03:26:35.696Z,0
2017-09-15T03:27:01.819Z,0
2017-09-15T03:27:27.939Z,0
2017-09-15T03:27:54.057Z,0
2017-09-15T03:28:20.182Z,0
2017-09-15T03:28:46.309Z,0
2017-09-15T03:29:12.425Z,0
2017-09-15T03:29:38.550Z,0
2017-09-15T03:30:04.697Z,0
2017-09-15T03:30:30.821Z,0
2017-09-15T03:30:56.936Z,0
2017-09-15T03:31:23.056Z,0
2017-09-15T03:31:49.183Z,0
2017-09-15T03:32:15.305Z,0
2017-09-15T03:32:41.427Z,0
2017-09-15T03:33:07.556Z,0
2017-09-15T03:33:33.673Z,0
2017-09-15T03:33:59.803Z,0
2017-09-15T03:34:25.918Z,0
2017-09-15T03:34:52.057Z,0
2017-09-15T03:35:18.181Z,0
2017-09-15T03:35:44.311Z,0
2017-09-15T03:36:10.435Z,0
2017-09-15T03:36:36.576Z,0
2017-09-15T03:37:02.704Z,0
2017-09-15T03:37:28.842Z,0
2017-09-15T03:37:54.979Z,0
2017-09-15T03:38:21.101Z,0
2017-09-15T03:38:47.226Z,0
2017-09-15T03:39:13.346Z,0
2017-09-15T03:39:39.472Z,0
2017-09-15T03:40:05.593Z,0
2017-09-15T03:40:31.721Z,0
2017-09-15T03:40:57.844Z,0
2017-09-15T03:41:23.962Z,0
2017-09-15T03:41:50.084Z,0
2017-09-15T03:42:16.209Z,0
2017-09-15T03:42:42.335Z,0
2017-09-15T03:43:08.472Z,0
2017-09-15T03:43:34.601Z,0
2017-09-15T03:44:00.718Z,0
2017-09-15T03:44:26.839Z,0
2017-09-15T03:44:52.962Z,0
2017-09-15T03:45:19.106Z,0
2017-09-15T03:45:45.233Z,0
2017-09-15T03:46:11.350Z,0
2017-09-15T03:46:37.477Z,0
2017-09-15T03:47:03.593Z,0
2017-09-15T03:47:29.721Z,0
2017-09-15T03:47:55.837Z,0
2017-09-15T03:48:21.960Z,0
2017-09-15T03:48:48.086Z,0
2017-09-15T03:49:14.204Z,0
2017-09-15T03:49:40.327Z,0
2017-09-15T03:50:06.458Z,0
2017-09-15T03:50:32.580Z,0
2017-09-15T03:50:58.696Z,0
2017-09-15T03:51:24.823Z,0
2017-09-15T03:51:50.937Z,0
2017-09-15T03:52:17.060Z,0
2017-09-15T03:52:43.179Z,0
2017-09-15T03:53:09.301Z,0
2017-09-15T03:53:35.422Z,0
2017-09-15T03:54:01.545Z,0
2017-09-15T03:54:27.674Z,0
2017-09-15T03:54:53.801Z,0
2017-09-15T03:55:19.939Z,0
2017-09-15T03:55:46.066Z,0
2017-09-15T03:56:12.196Z,0
2017-09-15T03:56:38.315Z,0
2017-09-15T03:57:04.461Z,0
2017-09-15T03:57:30.584Z,0
2017-09-15T03:57:56.708Z,0
2017-09-15T03:58:22.825Z,0
2017-09-15T03:58:48.955Z,0
2017-09-15T03:59:15.076Z,0
2017-09-15T03:59:41.198Z,0
2017-09-15T04:00:07.323Z,0
2017-09-15T04:00:33.447Z,0
2017-09-15T04:00:59.576Z,0
2017-09-15T04:01:25.694Z,0
2017-09-15T04:01:51.808Z,0
2017-09-15T04:02:17.934Z,0
2017-09-15T04:02:44.068Z,0
2017-09-15T04:03:10.192Z,0
2017-09-15T04:03:36.314Z,0
2017-09-15T04:04:02.441Z,0
2017-09-15T04:04:28.564Z,0
2017-09-15T04:04:54.682Z,0
2017-09-15T04:05:20.808Z,0
2017-09-15T04:05:46.930Z,0
2017-09-15T04:06:13.053Z,0
2017-09-15T04:06:39.176Z,0
2017-09-15T04:07:05.292Z,0
2017-09-15T04:07:31.418Z,0
2017-09-15T04:07:57.542Z,0
2017-09-15T04:08:23.681Z,0
2017-09-15T04:08:49.810Z,0
2017-09-15T04:09:15.930Z,0
2017-09-15T04:09:42.053Z,0
2017-09-15T04:10:08.174Z,0
2017-09-15T04:10:34.298Z,0
2017-09-15T04:11:00.415Z,0
2017-09-15T04:11:26.536Z,0
2017-09-15T04:11:52.663Z,0
2017-09-15T04:12:18.781Z,0
2017-09-15T04:12:44.907Z,0
2017-09-15T04:13:11.034Z,0
2017-09-15T04:13:37.151Z,0
2017-09-15T04:14:03.278Z,0
2017-09-15T04:14:29.398Z,0
2017-09-15T04:14:55.522Z,0
2017-09-15T04:15:21.642Z,0
2017-09-15T04:15:47.769Z,0
2017-09-15T04:16:13.891Z,0
2017-09-15T04:16:40.013Z,0
2017-09-15T04:17:06.134Z,0
2017-09-15T04:17:32.251Z,0
2017-09-15T04:17:58.379Z,0
2017-09-15T04:18:24.502Z,0
2017-09-15T04:18:50.621Z,0
2017-09-15T04:19:16.739Z,0
2017-09-15T04:19:42.861Z,0
2017-09-15T04:20:08.989Z,0
2017-09-15T04:20:35.106Z,0
2017-09-15T04:21:01.227Z,0
2017-09-15T04:21:27.353Z,0
2017-09-15T04:21:53.470Z,0
2017-09-15T04:22:19.597Z,0
2017-09-15T04:22:45.717Z,0
2017-09-15T04:23:11.841Z,0
2017-09-15T04:23:37.956Z,0
2017-09-15T04:24:04.084Z,0
2017-09-15T04:24:30.208Z,0
2017-09-15T04:24:56.327Z,0
2017-09-15T04:25:22.455Z,0
2017-09-15T04:25:48.571Z,0
2017-09-15T04:26:14.695Z,0
2017-09-15T04:26:40.823Z,0
2017-09-15T04:27:06.943Z,0
2017-09-15T04:27:33.068Z,0
2017-09-15T04:27:59.192Z,0
2017-09-15T04:28:25.312Z,0
2017-09-15T04:28:51.430Z,0
2017-09-15T04:29:17.555Z,0
2017-09-15T04:29:43.678Z,0
2017-09-15T04:30:09.801Z,0
2017-09-15T04:30:35.931Z,0
2017-09-15T04:31:02.057Z,0
2017-09-15T04:31:28.183Z,0
2017-09-15T04:31:54.306Z,0
2017-09-15T04:32:20.420Z,0
2017-09-15T04:32:46.547Z,0
2017-09-15T04:33:12.665Z,4
2017-09-15T04:33:38.806Z,4
2017-09-15T04:34:04.924Z,0
2017-09-15T04:34:31.046Z,4
2017-09-15T04:34:57.164Z,4
2017-09-15T04:35:23.290Z,4
2017-09-15T04:35:49.418Z,4
2017-09-15T04:36:15.543Z,4
2017-09-15T04:36:41.660Z,8
2017-09-15T04:37:07.788Z,8
2017-09-15T04:37:33.905Z,8
2017-09-15T04:38:00.032Z,4
2017-09-15T04:38:26.160Z,4
2017-09-15T04:38:52.295Z,4
2017-09-15T04:39:18.421Z,8
2017-09-15T04:39:44.568Z,8
2017-09-15T04:40:10.660Z,8
2017-09-15T04:40:36.787Z,8
2017-09-15T04:41:02.912Z,8
2017-09-15T04:41:29.031Z,8
2017-09-15T04:41:55.146Z,8
2017-09-15T04:42:21.269Z,12
2017-09-15T04:42:47.396Z,16
2017-09-15T04:43:13.517Z,12
2017-09-15T04:43:39.643Z,12
2017-09-15T04:44:05.764Z,12
2017-09-15T04:44:31.881Z,16
2017-09-15T04:44:58.006Z,12
2017-09-15T04:45:24.131Z,16
2017-09-15T04:45:50.252Z,16
2017-09-15T04:46:16.379Z,16
2017-09-15T04:46:42.495Z,20
2017-09-15T04:47:08.615Z,24
2017-09-15T04:47:34.741Z,20
2017-09-15T04:48:00.861Z,20
2017-09-15T04:48:26.985Z,24
2017-09-15T04:48:53.099Z,24
2017-09-15T04:49:19.225Z,24
2017-09-15T04:49:45.344Z,28
2017-09-15T04:50:11.476Z,28
2017-09-15T04:50:37.602Z,40
2017-09-15T04:51:03.719Z,48
2017-09-15T04:51:29.838Z,44
2017-09-15T04:51:55.965Z,36
2017-09-15T04:52:22.083Z,32
2017-09-15T04:52:48.210Z,28
2017-09-15T04:53:14.347Z,36
2017-09-15T04:53:40.476Z,40
2017-09-15T04:54:06.618Z,48
2017-09-15T04:54:32.744Z,48
2017-09-15T04:54:58.859Z,52
2017-09-15T04:55:24.980Z,52
2017-09-15T04:55:51.105Z,60
2017-09-15T04:56:17.225Z,64
2017-09-15T04:56:43.349Z,72
2017-09-15T04:57:09.473Z,76
2017-09-15T04:57:35.594Z,80
2017-09-15T04:58:01.722Z,84
2017-09-15T04:58:27.838Z,100
2017-09-15T04:58:53.961Z,108
2017-09-15T04:59:20.112Z,104
2017-09-15T04:59:46.253Z,112
2017-09-15T05:00:12.382Z,120
2017-09-15T05:00:38.499Z,116
2017-09-15T05:01:04.621Z,108
2017-09-15T05:01:30.749Z,124
2017-09-15T05:01:56.873Z,144
2017-09-15T05:02:22.991Z,168
2017-09-15T05:02:49.110Z,180
2017-09-15T05:03:15.235Z,180
2017-09-15T05:03:41.355Z,204
2017-09-15T05:04:07.482Z,220
2017-09-15T05:04:33.601Z,204
2017-09-15T05:04:59.723Z,200
2017-09-15T05:05:25.849Z,200
2017-09-15T05:05:51.970Z,208
2017-09-15T05:06:18.113Z,232
2017-09-15T05:06:44.240Z,260
2017-09-15T05:07:10.357Z,264
2017-09-15T05:07:36.487Z,280
2017-09-15T05:08:02.605Z,276
2017-09-15T05:08:28.751Z,304
2017-09-15T05:08:54.878Z,324
2017-09-15T05:09:21.000Z,336
2017-09-15T05:09:47.124Z,344
2017-09-15T05:10:13.245Z,312
2017-09-15T05:10:39.374Z,296
2017-09-15T05:11:05.490Z,316
2017-09-15T05:11:31.622Z,340
2017-09-15T05:11:57.735Z,376
2017-09-15T05:12:23.856Z,432
2017-09-15T05:12:49.987Z,480
2017-09-15T05:13:16.108Z,488
2017-09-15T05:13:42.225Z,496
2017-09-15T05:14:08.342Z,528
2017-09-15T05:14:34.462Z,544
2017-09-15T05:15:00.582Z,592
2017-09-15T05:15:26.712Z,588
2017-09-15T05:15:52.830Z,576
2017-09-15T05:16:18.951Z,588
2017-09-15T05:16:45.073Z,624
2017-09-15T05:17:11.192Z,684
2017-09-15T05:17:37.315Z,776
2017-09-15T05:18:03.442Z,796
2017-09-15T05:18:29.559Z,780
2017-09-15T05:18:55.676Z,740
2017-09-15T05:19:21.796Z,756
2017-09-15T05:19:47.928Z,788
2017-09-15T05:20:14.046Z,772
2017-09-15T05:20:40.173Z,764
2017-09-15T05:21:06.290Z,832
2017-09-15T05:21:32.419Z,864
2017-09-15T05:21:58.537Z,876
2017-09-15T05:22:24.681Z,888
2017-09-15T05:22:50.811Z,908
2017-09-15T05:23:16.931Z,908
2017-09-15T05:23:43.046Z,948
2017-09-15T05:24:09.172Z,1020
2017-09-15T05:24:35.297Z,1100
2017-09-15T05:25:01.414Z,1184
2017-09-15T05:25:27.543Z,1112
2017-09-15T05:25:53.661Z,1056
2017-09-15T05:26:19.786Z,1104
2017-09-15T05:26:45.915Z,1076
2017-09-15T05:27:12.031Z,1084
2017-09-15T05:27:38.158Z,1128
2017-09-15T05:28:04.283Z,1152
2017-09-15T05:28:30.403Z,1112
2017-09-15T05:28:56.521Z,1056
2017-09-15T05:29:22.644Z,1104
2017-09-15T05:29:48.770Z,1300
2017-09-15T05:30:14.887Z,1388
2017-09-15T05:30:41.011Z,1428
2017-09-15T05:31:07.135Z,1388
2017-09-15T05:31:33.262Z,1480
2017-09-15T05:31:59.380Z,1616
2017-09-15T05:32:25.522Z,1668
2017-09-15T05:32:51.635Z,1644
2017-09-15T05:33:17.755Z,1724
2017-09-15T05:33:43.886Z,1804
2017-09-15T05:34:10.009Z,1816
2017-09-15T05:34:36.178Z,1916
2017-09-15T05:35:02.273Z,2080
2017-09-15T05:35:28.399Z,2160
2017-09-15T05:35:54.523Z,2220
2017-09-15T05:36:20.637Z,2200
2017-09-15T05:36:46.768Z,2296
2017-09-15T05:37:12.886Z,2420
2017-09-15T05:37:39.010Z,2532
2017-09-15T05:38:05.134Z,2528
2017-09-15T05:38:31.253Z,2724
2017-09-15T05:38:57.378Z,2692
2017-09-15T05:39:23.492Z,2860
2017-09-15T05:39:49.616Z,2760
2017-09-15T05:40:15.736Z,2760
2017-09-15T05:40:41.866Z,2612
2017-09-15T05:41:07.992Z,2544
2017-09-15T05:41:34.111Z,2776
2017-09-15T05:42:00.240Z,3100
2017-09-15T05:42:26.354Z,3272
2017-09-15T05:42:52.482Z,3360
2017-09-15T05:43:18.604Z,3020
2017-09-15T05:43:44.728Z,2820
2017-09-15T05:44:10.846Z,2916
2017-09-15T05:44:36.974Z,3452
2017-09-15T05:45:03.091Z,3856
2017-09-15T05:45:29.217Z,3428
2017-09-15T05:45:55.338Z,3008
2017-09-15T05:46:21.459Z,3224
2017-09-15T05:46:47.587Z,3216
2017-09-15T05:47:13.705Z,3432
2017-09-15T05:47:39.829Z,3668
2017-09-15T05:48:05.947Z,3728
2017-09-15T05:48:32.101Z,3384
2017-09-15T05:48:58.225Z,3152
2017-09-15T05:49:24.345Z,3316
2017-09-15T05:49:50.471Z,3124
2017-09-15T05:50:16.590Z,3400
2017-09-15T05:50:42.714Z,3584
2017-09-15T05:51:08.831Z,3648
2017-09-15T05:51:34.948Z,3884
2017-09-15T05:52:01.076Z,4548
2017-09-15T05:52:27.201Z,4684
2017-09-15T05:52:53.319Z,5648
2017-09-15T05:53:19.440Z,5704
2017-09-15T05:53:45.568Z,5200
2017-09-15T05:54:11.685Z,5488
2017-09-15T05:54:37.812Z,5272
2017-09-15T05:55:03.931Z,4452
2017-09-15T05:55:30.056Z,3796
2017-09-15T05:55:56.177Z,3748
2017-09-15T05:56:22.311Z,3576
2017-09-15T05:56:48.447Z,3584
2017-09-15T05:57:14.567Z,3812
2017-09-15T05:57:40.688Z,3772
2017-09-15T05:58:06.807Z,3884
2017-09-15T05:58:32.938Z,3652
2017-09-15T05:58:59.060Z,3596
2017-09-15T05:59:25.183Z,3748
2017-09-15T05:59:51.301Z,3704
2017-09-15T06:00:17.426Z,3816
2017-09-15T06:00:43.547Z,3784
2017-09-15T06:01:09.687Z,3848
2017-09-15T06:01:35.819Z,3808
2017-09-15T06:02:01.941Z,3836
2017-09-15T06:02:28.066Z,4112
2017-09-15T06:02:54.180Z,4544
2017-09-15T06:03:20.305Z,4376
2017-09-15T06:03:46.421Z,4144
2017-09-15T06:04:12.552Z,4296
2017-09-15T06:04:38.669Z,4408
2017-09-15T06:05:04.790Z,4896
2017-09-15T06:05:30.909Z,5136
2017-09-15T06:05:57.034Z,5280
2017-09-15T06:06:23.156Z,5316
2017-09-15T06:06:49.273Z,5032
2017-09-15T06:07:15.418Z,4944
2017-09-15T06:07:41.546Z,4880
2017-09-15T06:08:07.662Z,4748
2017-09-15T06:08:33.789Z,4992
2017-09-15T06:08:59.916Z,5060
2017-09-15T06:09:26.033Z,5096
2017-09-15T06:09:52.163Z,5004
2017-09-15T06:10:18.279Z,4828
2017-09-15T06:10:44.399Z,4544
2017-09-15T06:11:10.527Z,4524
2017-09-15T06:11:36.645Z,4392
2017-09-15T06:12:02.771Z,4080
2017-09-15T06:12:28.888Z,3784
2017-09-15T06:12:55.015Z,3524
2017-09-15T06:13:21.139Z,3420
2017-09-15T06:13:47.257Z,3512
2017-09-15T06:14:13.377Z,3568
2017-09-15T06:14:39.503Z,3672
2017-09-15T06:15:05.627Z,3992
2017-09-15T06:15:31.744Z,4072
2017-09-15T06:15:57.874Z,4188
2017-09-15T06:16:23.994Z,4052
2017-09-15T06:16:50.124Z,4352
2017-09-15T06:17:16.323Z,4664
2017-09-15T06:17:42.501Z,5112